Route Details

Aircraft Information
Group: North America Fleet
Types: B738, B752, B762, B763
Route Data
Distance: 2079nm
Duration: 0h 00m
Origin METAR: KSMF 140153Z 16007KT 10SM FEW010 SCT037 OVC100 09/06 A2999 RMK AO2 SLP154 T00890061
Dest. METAR: KBWI 140054Z 28008KT 10SM CLR 14/M02 A2992 RMK AO2 PK WND 29027/0000 SLP131 T01441017
Freight Data
(for Apr 14, 2024)
Load Factor:
82%
Manifested Cargo: 44,237lbs
Financial History
Total Freight: 21,096lbs
Average Load: 0lbs/flt
Fuel Used: 31,892lbs
Avg. Fuel Used: 0lbs/flt
Fuel Expense: $17,222
Avg. Fuel Expense: $0
Avg. Fuel Cost: $0/lbs
Total Gross Income: $57,170
Pilot Pay: $119
Total Expenses: $9,592
Total Revenue: $29,801
Average Revenue: $0

Capitol Logistics 450




KSMF
Sacramento International Airport
Sacramento, California
KBWI
Baltimore/Washington International Airport
Baltimore, Maryland

Activity Log

Date Flight Route Aircraft Duration
06/08/2022 CPX7382 SCTWN4 MACUS Q124 BVL J154 TCH LBF OVR PIA BVT ROD APE NUSMM ANTHM3 B752 4h 40m